LFBC 210400Z AUTO 02007KT 9999 // NSC 02/01 Q1033

ElémentsDécodage
LFBC Station météo située sur l'aérodrome de CAZAUX
210400Z émis le 21 du mois à 04h00 UTC
AUTO Bulletin édité par un automate
02007KT vent du 020°, 07 noeuds
9999 visibilité horizontale supérieure à 10 Km
// élement non décodé
NSC pas de nuage significatif (pas de nuage <5000ft, pas de CB)
02/01 température 02°C, point de rosée 01°C
 soit une humidité relative de 93%
Q1033 la pression au niveau de la mer (QNH) est de 1033 hPa